createdAt,value
2019-04-04T00:00:52.368Z,4.67
2019-04-04T00:03:22.537Z,3.90
2019-04-04T00:05:52.731Z,4.80
2019-04-04T00:08:22.817Z,4.37
2019-04-04T00:10:52.911Z,5.00
2019-04-04T00:13:23.028Z,4.47
2019-04-04T00:15:53.096Z,5.00
2019-04-04T00:18:23.182Z,4.57
2019-04-04T00:20:53.283Z,4.77
2019-04-04T00:23:23.466Z,5.00
2019-04-04T00:25:53.526Z,4.50
2019-04-04T00:28:23.595Z,4.70
2019-04-04T00:30:53.730Z,4.47
2019-04-04T00:33:25.609Z,4.62
2019-04-04T00:35:55.529Z,4.97
2019-04-04T00:38:25.617Z,4.97
2019-04-04T00:40:55.723Z,4.10
2019-04-04T00:43:25.922Z,4.70
2019-04-04T00:45:56.211Z,4.53
2019-04-04T00:48:26.343Z,5.50
2019-04-04T00:50:56.481Z,5.00
2019-04-04T00:53:26.599Z,5.30
2019-04-04T00:55:56.741Z,5.40
2019-04-04T00:58:26.881Z,4.80
2019-04-04T01:00:56.911Z,5.27
2019-04-04T01:03:29.757Z,5.10
2019-04-04T01:05:58.713Z,5.67
2019-04-04T01:08:28.901Z,5.25
2019-04-04T01:10:58.981Z,5.50
2019-04-04T01:13:29.049Z,5.30
2019-04-04T01:15:59.080Z,5.17
2019-04-04T01:18:29.236Z,5.23
2019-04-04T01:20:59.303Z,5.50
2019-04-04T01:23:29.446Z,5.83
2019-04-04T01:26:01.335Z,6.00
2019-04-04T01:28:31.270Z,6.07
2019-04-04T01:31:01.342Z,5.60
2019-04-04T01:33:31.415Z,5.97
2019-04-04T01:36:01.447Z,5.10
2019-04-04T01:38:31.469Z,5.50
2019-04-04T01:41:03.973Z,5.70
2019-04-04T01:43:33.235Z,5.40
2019-04-04T01:46:03.230Z,5.10
2019-04-04T01:48:33.271Z,5.87
2019-04-04T01:51:03.343Z,5.50
2019-04-04T01:53:33.376Z,5.50
2019-04-04T01:56:05.860Z,5.73
2019-04-04T01:58:35.362Z,6.20
2019-04-04T02:01:05.465Z,6.17
2019-04-04T02:03:35.527Z,6.23
2019-04-04T02:06:05.634Z,5.90
2019-04-04T02:08:35.652Z,6.20
2019-04-04T02:11:05.991Z,6.43
2019-04-04T02:13:35.994Z,6.50
2019-04-04T02:16:06.037Z,5.30
2019-04-04T02:18:36.040Z,5.73
2019-04-04T02:21:06.213Z,7.10
2019-04-04T02:23:36.439Z,6.40
2019-04-04T02:26:06.545Z,6.70
2019-04-04T02:28:37.995Z,6.13
2019-04-04T02:31:09.117Z,6.53
2019-04-04T02:33:39.192Z,6.10
2019-04-04T02:36:09.298Z,6.20
2019-04-04T02:38:39.366Z,6.40
2019-04-04T02:41:09.460Z,6.53
2019-04-04T02:43:39.506Z,6.30
2019-04-04T02:46:11.550Z,6.87
2019-04-04T02:48:41.384Z,6.97
2019-04-04T02:51:11.461Z,6.83
2019-04-04T02:59:09.763Z,7.17
2019-04-04T03:01:39.982Z,6.27
2019-04-04T03:04:13.619Z,6.47
2019-04-04T03:06:43.071Z,6.25
2019-04-04T03:09:13.305Z,6.67
2019-04-04T03:11:45.739Z,6.70
2019-04-04T03:14:15.952Z,6.60
2019-04-04T03:16:47.127Z,6.63
2019-04-04T03:19:18.083Z,7.10
2019-04-04T03:21:48.402Z,7.12
2019-04-04T03:24:18.525Z,6.37
2019-04-04T03:26:52.136Z,7.67
2019-04-04T03:29:22.166Z,7.15
2019-04-04T03:31:52.451Z,7.35
2019-04-04T03:34:22.711Z,7.17
2019-04-04T03:36:53.693Z,7.53
2019-04-04T03:39:24.683Z,7.30
2019-04-04T03:41:54.899Z,7.22
2019-04-04T03:44:26.658Z,7.80
2019-04-04T03:46:56.874Z,7.35
2019-04-04T03:49:27.435Z,7.77
2019-04-04T03:51:57.630Z,8.08
2019-04-04T03:54:28.494Z,8.20
2019-04-04T03:56:58.614Z,8.60
2019-04-04T03:59:32.411Z,8.25
2019-04-04T04:02:01.558Z,8.68
2019-04-04T04:04:31.729Z,9.30
2019-04-04T04:07:03.912Z,9.57
2019-04-04T04:09:34.952Z,8.83
2019-04-04T04:12:05.169Z,7.80
2019-04-04T04:14:35.357Z,8.30
2019-04-04T04:17:05.605Z,8.00
2019-04-04T04:19:36.825Z,9.10
2019-04-04T04:22:07.870Z,8.93
2019-04-04T04:24:38.871Z,8.80
2019-04-04T04:27:09.044Z,9.73
2019-04-04T04:29:39.225Z,8.50
2019-04-04T04:32:09.427Z,9.20
2019-04-04T04:34:39.645Z,7.63
2019-04-04T04:37:09.953Z,8.83
2019-04-04T04:39:41.447Z,8.30
2019-04-04T04:42:11.928Z,8.47
2019-04-04T04:44:42.131Z,8.70
2019-04-04T04:47:12.311Z,8.80
2019-04-04T04:49:42.568Z,7.73
2019-04-04T04:52:15.343Z,8.87
2019-04-04T04:54:46.026Z,8.53
2019-04-04T04:57:28.871Z,9.23
2019-04-04T04:59:48.170Z,9.03
2019-04-04T05:02:22.156Z,9.13
2019-04-04T05:04:50.379Z,8.60
2019-04-04T05:07:21.624Z,8.33
2019-04-04T05:09:53.640Z,8.70
2019-04-04T05:12:24.020Z,8.00
2019-04-04T05:14:54.382Z,9.38
2019-04-04T05:17:24.668Z,8.75
2019-04-04T05:19:54.930Z,8.70
2019-04-04T05:22:30.487Z,8.87
2019-04-04T05:25:08.308Z,8.65
2019-04-04T05:27:37.918Z,9.10
2019-04-04T05:30:08.834Z,8.63
2019-04-04T05:32:39.140Z,9.57
2019-04-04T05:35:09.350Z,8.67
2019-04-04T05:37:40.539Z,8.80
2019-04-04T05:40:12.641Z,8.43
2019-04-04T05:42:42.856Z,9.00
2019-04-04T05:45:14.283Z,9.80
